Time;durP1;ratioP1;P1;durP2;ratioP2;P2;SDS_P1;SDS_P2;PMS_P1;PMS_P2;Temp;Humidity;BMP_temperature;BMP_pressure;BME280_temperature;BME280_humidity;BME280_pressure;Samples;Min_cycle;Max_cycle;Signal;HPM_P1;HPM_P2
2024/01/31 00:01:44;;;;;;;71.90;27.30;;;-1.30;99.90;;;;;;6242395;23;20015;-78
2024/01/31 00:04:13;;;;;;;75.22;25.40;;;-1.10;99.90;;;;;;6216049;23;20004;-76
2024/01/31 00:06:43;;;;;;;63.20;24.90;;;-1.20;99.90;;;;;;6216825;23;20005;-76
2024/01/31 00:09:16;;;;;;;69.15;26.52;;;-1.00;99.90;;;;;;6215683;23;19996;-76
2024/01/31 00:11:45;;;;;;;69.90;26.48;;;-1.20;99.90;;;;;;6216539;23;20015;-77
2024/01/31 00:14:18;;;;;;;73.20;26.35;;;-1.10;99.90;;;;;;6242374;23;19996;-76
2024/01/31 00:16:46;;;;;;;65.80;26.38;;;-1.20;99.90;;;;;;6216558;23;20012;-76
2024/01/31 00:19:15;;;;;;;69.88;25.55;;;-1.20;99.90;;;;;;6216903;23;20035;-77
2024/01/31 00:21:45;;;;;;;69.03;25.88;;;-0.70;99.90;;;;;;6242361;23;20016;-77
2024/01/31 00:24:13;;;;;;;65.05;25.10;;;-1.30;99.90;;;;;;6216911;23;20035;-77
2024/01/31 00:26:45;;;;;;;67.38;25.52;;;0.00;99.90;;;;;;6216066;23;20360;-76
2024/01/31 00:29:13;;;;;;;69.82;26.08;;;-1.30;99.90;;;;;;6199266;23;20095;-75
2024/01/31 00:31:42;;;;;;;66.15;23.45;;;-1.30;99.90;;;;;;6214628;23;20773;-75
2024/01/31 00:34:10;;;;;;;68.18;22.33;;;-0.50;99.90;;;;;;6213894;23;20079;-75
2024/01/31 00:36:39;;;;;;;70.05;26.33;;;-1.30;99.90;;;;;;6214861;23;20016;-75
2024/01/31 00:39:07;;;;;;;77.10;26.17;;;-1.30;99.90;;;;;;6187568;23;20056;-76
2024/01/31 00:41:35;;;;;;;67.35;25.40;;;-1.40;99.90;;;;;;6213466;23;20334;-75
2024/01/31 00:44:05;;;;;;;63.85;24.80;;;-1.30;99.90;;;;;;6187273;23;20395;-75
2024/01/31 00:46:34;;;;;;;57.50;23.08;;;-1.40;99.90;;;;;;6186154;23;20032;-75
2024/01/31 00:49:04;;;;;;;67.20;24.98;;;-1.30;99.90;;;;;;6187684;23;20462;-76
2024/01/31 00:51:33;;;;;;;64.50;23.23;;;-1.30;99.90;;;;;;6189667;23;20108;-75
2024/01/31 00:54:01;;;;;;;61.83;23.65;;;-1.30;99.90;;;;;;6215271;23;20044;-76
2024/01/31 00:56:30;;;;;;;55.78;21.67;;;-1.30;99.90;;;;;;6216230;23;20048;-75
2024/01/31 00:59:00;;;;;;;63.25;24.77;;;-1.40;99.90;;;;;;6189021;23;20107;-75
2024/01/31 01:01:30;;;;;;;63.33;22.55;;;-1.40;99.90;;;;;;6188926;23;20020;-75
2024/01/31 01:03:58;;;;;;;63.20;24.27;;;-1.30;99.90;;;;;;6182503;23;20472;-75
2024/01/31 01:06:27;;;;;;;68.05;23.92;;;-1.40;99.90;;;;;;6184034;23;20051;-75
2024/01/31 01:08:55;;;;;;;64.40;21.92;;;-1.40;99.90;;;;;;6184349;23;20052;-75
2024/01/31 01:11:24;;;;;;;65.28;25.40;;;-1.50;99.90;;;;;;6184254;23;20028;-75
2024/01/31 01:13:52;;;;;;;57.63;23.45;;;-1.50;99.90;;;;;;6184013;23;20032;-76
2024/01/31 01:16:21;;;;;;;62.95;23.60;;;-1.50;99.90;;;;;;6182689;23;20021;-75
2024/01/31 01:18:50;;;;;;;69.78;23.98;;;-1.50;99.90;;;;;;6184638;23;20458;-75
2024/01/31 01:21:19;;;;;;;56.30;21.85;;;-1.50;99.90;;;;;;6185750;23;20516;-75
2024/01/31 01:23:47;;;;;;;66.07;24.95;;;-1.50;99.90;;;;;;6183675;23;20075;-75
2024/01/31 01:26:17;;;;;;;63.90;22.30;;;-1.50;99.90;;;;;;6186248;23;20093;-75
2024/01/31 01:28:46;;;;;;;65.07;24.85;;;-1.60;99.90;;;;;;6186101;23;20021;-75
2024/01/31 01:31:14;;;;;;;63.10;23.98;;;-1.60;99.90;;;;;;6208496;23;20025;-75
2024/01/31 01:33:43;;;;;;;63.47;23.17;;;-1.60;99.90;;;;;;6183255;23;20124;-76
2024/01/31 01:36:13;;;;;;;63.13;22.58;;;-1.60;99.90;;;;;;6184243;23;20332;-75
2024/01/31 01:38:41;;;;;;;60.50;23.50;;;-1.60;99.90;;;;;;6188294;23;20017;-78
2024/01/31 01:41:10;;;;;;;59.88;21.92;;;-1.60;99.90;;;;;;6212305;23;20302;-78
2024/01/31 01:43:42;;;;;;;57.70;22.40;;;-1.70;99.90;;;;;;6237322;23;20008;-77
2024/01/31 01:46:14;;;;;;;62.60;21.85;;;-1.30;99.90;;;;;;6212231;23;20072;-76
2024/01/31 01:48:44;;;;;;;65.38;22.75;;;-2.30;99.90;;;;;;6212969;23;20032;-76
2024/01/31 01:51:18;;;;;;;73.32;24.85;;;-0.60;99.90;;;;;;6212670;23;20021;-78
2024/01/31 01:53:51;;;;;;;75.07;25.55;;;-1.80;99.90;;;;;;6212163;23;20076;-76
2024/01/31 01:56:21;;;;;;;89.65;28.17;;;0.00;99.90;;;;;;6212186;23;20001;-77
2024/01/31 01:58:52;;;;;;;77.95;29.50;;;-1.70;99.90;;;;;;6211511;23;20025;-78
2024/01/31 02:01:22;;;;;;;77.50;27.55;;;-0.90;99.90;;;;;;6210682;23;20027;-76
2024/01/31 02:03:56;;;;;;;85.57;29.13;;;-1.70;99.90;;;;;;6212269;23;20001;-77
2024/01/31 02:06:27;;;;;;;77.43;28.67;;;-1.40;99.90;;;;;;6211277;23;20017;-78
2024/01/31 02:08:56;;;;;;;82.72;27.50;;;-3.30;99.90;;;;;;6211241;23;20025;-78
2024/01/31 02:11:25;;;;;;;84.63;27.40;;;-2.60;99.90;;;;;;6211170;23;20013;-77
2024/01/31 02:13:55;;;;;;;77.70;28.55;;;-3.30;99.90;;;;;;6211726;23;20000;-76
2024/01/31 02:16:24;;;;;;;75.68;27.90;;;-2.20;99.90;;;;;;6209937;23;20044;-77
2024/01/31 02:18:53;;;;;;;84.22;28.08;;;-1.80;99.90;;;;;;6210461;23;20427;-77
2024/01/31 02:21:25;;;;;;;76.38;26.40;;;-0.80;99.90;;;;;;6209385;23;20005;-76
2024/01/31 02:23:58;;;;;;;79.80;27.67;;;-1.60;99.90;;;;;;6210199;23;20021;-78
2024/01/31 02:26:28;;;;;;;89.57;27.40;;;-1.70;99.90;;;;;;6209184;23;20315;-77
2024/01/31 02:28:59;;;;;;;73.57;27.75;;;-2.10;99.90;;;;;;6208869;23;20012;-78
2024/01/31 02:31:28;;;;;;;73.13;24.60;;;-0.80;99.90;;;;;;6209490;23;20029;-77
2024/01/31 02:33:57;;;;;;;76.55;27.70;;;-1.90;99.90;;;;;;6207828;23;20021;-77
2024/01/31 02:36:26;;;;;;;76.53;27.50;;;-1.40;99.90;;;;;;6209264;23;20021;-77
2024/01/31 02:38:56;;;;;;;75.35;24.45;;;-2.30;99.90;;;;;;6209081;23;20017;-76
2024/01/31 02:41:25;;;;;;;71.55;26.27;;;-2.50;99.90;;;;;;6209929;23;20450;-79
2024/01/31 02:43:55;;;;;;;74.65;27.05;;;-0.70;99.90;;;;;;6209563;23;20028;-78
2024/01/31 02:46:23;;;;;;;69.80;27.52;;;-2.00;99.90;;;;;;6208621;23;20024;-78
2024/01/31 02:48:54;;;;;;;76.43;26.77;;;-0.90;99.90;;;;;;6198928;23;20027;-76
2024/01/31 02:51:23;;;;;;;76.68;25.08;;;-2.10;99.90;;;;;;6184093;23;20023;-76
2024/01/31 02:53:51;;;;;;;82.57;28.13;;;-2.10;99.90;;;;;;6182651;23;20029;-76
2024/01/31 02:56:21;;;;;;;76.32;26.75;;;-2.10;99.90;;;;;;6182071;23;20083;-76
2024/01/31 02:58:49;;;;;;;75.03;26.38;;;-2.10;99.90;;;;;;6181813;23;20068;-76
2024/01/31 03:01:18;;;;;;;72.53;26.15;;;-2.10;99.90;;;;;;6184246;23;20021;-76
2024/01/31 03:03:46;;;;;;;73.50;27.10;;;-2.10;99.90;;;;;;6182963;23;20029;-76
2024/01/31 03:06:15;;;;;;;78.15;25.95;;;-2.20;99.90;;;;;;6184536;23;20024;-76
2024/01/31 03:08:43;;;;;;;72.65;27.10;;;-2.20;99.90;;;;;;6182826;23;20020;-76
2024/01/31 03:11:12;;;;;;;74.65;25.60;;;-2.20;99.90;;;;;;6184189;23;20101;-76
2024/01/31 03:13:42;;;;;;;67.00;25.00;;;-2.20;99.90;;;;;;6182548;23;20025;-76
2024/01/31 03:16:10;;;;;;;79.32;26.52;;;-2.20;99.90;;;;;;6182997;23;20021;-76
2024/01/31 03:18:38;;;;;;;72.22;24.92;;;-2.20;99.90;;;;;;6182570;23;20025;-76
2024/01/31 03:21:07;;;;;;;71.60;25.92;;;-2.30;99.90;;;;;;6182114;23;20451;-77
2024/01/31 03:23:36;;;;;;;72.93;25.25;;;-2.20;99.90;;;;;;6182720;23;20025;-76
2024/01/31 03:26:03;;;;;;;67.00;23.35;;;-2.30;99.90;;;;;;6182159;23;20044;-77
2024/01/31 03:28:32;;;;;;;79.10;24.85;;;-2.30;99.90;;;;;;6183536;23;20026;-77
2024/01/31 03:31:02;;;;;;;66.82;25.05;;;-2.30;99.90;;;;;;6183675;23;20480;-76
2024/01/31 03:33:31;;;;;;;72.47;25.65;;;-2.30;99.90;;;;;;6182913;23;20052;-76
2024/01/31 03:35:59;;;;;;;73.75;25.40;;;-2.30;99.90;;;;;;6183237;23;20021;-76
2024/01/31 03:38:27;;;;;;;73.43;24.63;;;-2.30;99.90;;;;;;6183166;23;20042;-76
2024/01/31 03:40:56;;;;;;;77.93;24.50;;;-2.40;99.90;;;;;;6183895;23;20118;-76
2024/01/31 03:43:24;;;;;;;77.47;25.77;;;-2.30;99.90;;;;;;6181383;23;20029;-77
2024/01/31 03:45:53;;;;;;;59.88;23.02;;;-2.40;99.90;;;;;;6181870;23;20056;-77
2024/01/31 03:48:22;;;;;;;65.53;22.00;;;-2.40;99.90;;;;;;6183691;23;20035;-77
2024/01/31 03:50:51;;;;;;;56.75;24.13;;;-2.40;99.90;;;;;;6181918;23;20029;-76
2024/01/31 03:53:19;;;;;;;65.53;23.90;;;-2.30;99.90;;;;;;6183973;23;20071;-76
2024/01/31 03:55:48;;;;;;;60.13;23.10;;;-2.50;99.90;;;;;;6182886;23;20450;-77
2024/01/31 03:58:16;;;;;;;56.60;22.35;;;-2.40;99.90;;;;;;6182543;23;20067;-77
2024/01/31 04:00:45;;;;;;;67.38;23.92;;;-2.50;99.90;;;;;;6183547;23;20086;-76
2024/01/31 04:03:13;;;;;;;66.40;23.25;;;-2.50;99.90;;;;;;6192984;23;20020;-76
2024/01/31 04:05:43;;;;;;;70.07;24.05;;;-2.50;99.90;;;;;;6186668;23;20080;-76
2024/01/31 04:08:12;;;;;;;63.75;23.05;;;-2.50;99.90;;;;;;6186329;23;20020;-76
2024/01/31 04:10:40;;;;;;;62.28;23.10;;;-2.50;99.90;;;;;;6186933;23;20695;-76
2024/01/31 04:13:09;;;;;;;73.68;24.92;;;-2.50;99.90;;;;;;6186735;23;20056;-76
2024/01/31 04:15:37;;;;;;;59.75;21.83;;;-2.50;99.90;;;;;;6185959;23;20017;-76
2024/01/31 04:18:07;;;;;;;76.00;26.40;;;-2.50;99.90;;;;;;6186748;23;20035;-77
2024/01/31 04:20:38;;;;;;;61.60;23.40;;;-2.60;99.90;;;;;;6186817;23;20472;-77
2024/01/31 04:23:08;;;;;;;64.65;23.10;;;-2.60;99.90;;;;;;6187587;23;20104;-76
2024/01/31 04:25:37;;;;;;;65.47;23.42;;;-2.60;99.90;;;;;;6186792;23;20059;-76
2024/01/31 04:28:06;;;;;;;72.88;24.75;;;-2.60;99.90;;;;;;6187552;23;20458;-76
2024/01/31 04:30:34;;;;;;;63.00;23.27;;;-2.60;99.90;;;;;;6184062;23;20032;-76
2024/01/31 04:33:03;;;;;;;69.07;23.38;;;-2.70;99.90;;;;;;6213248;23;20016;-77
2024/01/31 04:35:32;;;;;;;74.53;24.60;;;-2.60;99.90;;;;;;6186891;23;20024;-76
2024/01/31 04:38:00;;;;;;;72.53;23.02;;;-2.60;99.90;;;;;;6187301;23;20520;-77
2024/01/31 04:40:30;;;;;;;68.85;23.33;;;-2.70;99.90;;;;;;6185396;23;20028;-76
2024/01/31 04:42:58;;;;;;;59.47;23.63;;;-2.70;99.90;;;;;;6213674;23;20025;-76
2024/01/31 04:45:27;;;;;;;64.25;22.85;;;-2.70;99.90;;;;;;6187049;23;20059;-77
2024/01/31 04:47:55;;;;;;;64.07;23.38;;;-2.70;99.90;;;;;;6186334;23;20052;-77
2024/01/31 04:50:24;;;;;;;57.60;22.42;;;-2.70;99.90;;;;;;6187385;23;20406;-77
2024/01/31 04:52:53;;;;;;;59.28;20.42;;;-2.80;99.90;;;;;;6213768;23;20016;-77
2024/01/31 04:55:21;;;;;;;65.22;24.95;;;-2.80;99.90;;;;;;6213231;23;20016;-77
2024/01/31 04:57:51;;;;;;;58.75;22.80;;;-2.80;99.90;;;;;;6186466;23;20021;-76
2024/01/31 05:00:23;;;;;;;65.65;24.17;;;-2.80;99.90;;;;;;6186606;23;20048;-76
2024/01/31 05:02:52;;;;;;;52.67;19.95;;;-2.70;99.90;;;;;;6187478;23;20035;-77
2024/01/31 05:05:20;;;;;;;73.70;26.02;;;-2.70;99.90;;;;;;6185717;23;20078;-76
2024/01/31 05:07:49;;;;;;;64.97;23.63;;;-2.70;99.90;;;;;;6213592;23;20028;-77
2024/01/31 05:10:18;;;;;;;67.07;24.20;;;-2.80;99.90;;;;;;6187595;23;20017;-77
2024/01/31 05:12:46;;;;;;;59.10;21.90;;;-2.80;99.90;;;;;;6186029;23;20757;-77
2024/01/31 05:15:16;;;;;;;77.10;25.50;;;-2.80;99.90;;;;;;6213014;23;20358;-77
2024/01/31 05:17:45;;;;;;;80.30;27.55;;;-2.70;99.90;;;;;;6213610;23;20025;-77
2024/01/31 05:20:13;;;;;;;89.22;26.80;;;-2.80;99.90;;;;;;6187028;23;20470;-77
2024/01/31 05:22:42;;;;;;;89.60;28.38;;;-2.80;99.90;;;;;;6212688;23;20029;-77
2024/01/31 05:25:11;;;;;;;86.60;29.75;;;-2.80;99.90;;;;;;6186859;23;20024;-77
2024/01/31 05:27:39;;;;;;;84.70;28.95;;;-2.90;99.90;;;;;;6213282;23;20047;-77
2024/01/31 05:30:09;;;;;;;76.93;26.65;;;-2.80;99.90;;;;;;6211980;23;20019;-77
2024/01/31 05:32:38;;;;;;;74.90;26.52;;;-2.80;99.90;;;;;;6186651;23;20078;-77
2024/01/31 05:35:08;;;;;;;72.32;24.95;;;-2.90;99.90;;;;;;6213291;23;20055;-77
2024/01/31 05:37:36;;;;;;;71.88;24.55;;;-2.90;99.90;;;;;;6186423;23;20095;-77
2024/01/31 05:40:11;;;;;;;71.60;24.35;;;-2.90;99.90;;;;;;6187385;23;20020;-77
2024/01/31 05:42:40;;;;;;;75.65;24.67;;;-2.90;99.90;;;;;;6188784;23;20032;-77
2024/01/31 05:45:09;;;;;;;72.68;24.67;;;-2.90;99.90;;;;;;6214029;23;20033;-77
2024/01/31 05:47:39;;;;;;;74.00;26.83;;;-2.90;99.90;;;;;;6187985;23;20024;-77
2024/01/31 05:50:09;;;;;;;74.07;27.25;;;-2.90;99.90;;;;;;6188684;23;20016;-77
2024/01/31 05:52:38;;;;;;;74.30;26.60;;;-3.00;99.90;;;;;;6188958;23;20024;-77
2024/01/31 05:55:07;;;;;;;88.25;30.98;;;-3.00;99.90;;;;;;6187805;23;20430;-77
2024/01/31 05:57:35;;;;;;;90.60;29.48;;;-3.00;99.90;;;;;;6187350;23;20108;-77
2024/01/31 06:00:09;;;;;;;96.57;31.13;;;-3.00;99.90;;;;;;6213966;23;20457;-77
2024/01/31 06:02:43;;;;;;;93.22;29.73;;;-3.00;99.90;;;;;;6186740;23;20448;-77
2024/01/31 06:05:13;;;;;;;85.78;29.20;;;-2.90;99.90;;;;;;6214330;23;20032;-76
2024/01/31 06:07:42;;;;;;;84.30;30.00;;;-3.00;99.90;;;;;;6191782;23;20123;-78
2024/01/31 06:10:10;;;;;;;94.55;32.08;;;-2.80;99.90;;;;;;6194730;23;20024;-78
2024/01/31 06:12:39;;;;;;;93.95;30.80;;;-3.00;99.90;;;;;;6222137;23;20020;-79
2024/01/31 06:15:08;;;;;;;82.43;30.40;;;-3.00;99.90;;;;;;6194218;23;20434;-78
2024/01/31 06:17:38;;;;;;;100.30;33.08;;;-3.00;99.90;;;;;;6222826;23;20028;-78
2024/01/31 06:20:10;;;;;;;91.07;30.65;;;-3.00;99.90;;;;;;6190627;23;20020;-76
2024/01/31 06:22:38;;;;;;;98.13;32.22;;;-3.00;99.90;;;;;;6188246;23;20472;-76
2024/01/31 06:25:08;;;;;;;97.15;33.85;;;-3.00;99.90;;;;;;6187723;23;20028;-76
2024/01/31 06:27:37;;;;;;;96.68;34.72;;;-3.00;99.90;;;;;;6187909;23;20025;-76
2024/01/31 06:30:07;;;;;;;93.60;31.88;;;-3.00;99.90;;;;;;6215150;23;20012;-78
2024/01/31 06:32:40;;;;;;;91.43;35.63;;;-3.00;99.90;;;;;;6213230;23;20070;-76
2024/01/31 06:35:10;;;;;;;107.20;35.20;;;-3.00;99.90;;;;;;6213681;23;20075;-75
2024/01/31 06:37:39;;;;;;;98.22;36.50;;;-2.90;99.90;;;;;;6187528;23;20016;-75
2024/01/31 06:40:09;;;;;;;107.78;37.10;;;-2.90;99.90;;;;;;6185370;23;20405;-76
2024/01/31 06:42:37;;;;;;;99.28;34.58;;;-2.90;99.90;;;;;;6213694;23;20020;-75
2024/01/31 06:45:06;;;;;;;102.05;36.42;;;-2.90;99.90;;;;;;6185838;23;20024;-76
2024/01/31 06:47:34;;;;;;;101.85;35.95;;;-2.80;99.90;;;;;;6185974;23;20074;-76
2024/01/31 06:50:03;;;;;;;95.65;37.08;;;-2.80;99.90;;;;;;6188667;23;20366;-75
2024/01/31 06:52:33;;;;;;;106.60;36.80;;;-2.80;99.90;;;;;;6187085;23;20059;-76
2024/01/31 06:55:02;;;;;;;122.57;38.28;;;-2.80;99.90;;;;;;6185251;23;20461;-75
2024/01/31 06:57:31;;;;;;;109.70;36.95;;;-2.80;99.90;;;;;;6185571;23;20021;-75
2024/01/31 07:00:00;;;;;;;106.90;34.90;;;-2.70;99.90;;;;;;6213102;23;20017;-75
2024/01/31 07:02:28;;;;;;;99.47;34.15;;;-2.60;99.90;;;;;;6185161;23;20051;-75
2024/01/31 07:04:56;;;;;;;89.78;32.65;;;-2.60;99.90;;;;;;6211638;23;20024;-75
2024/01/31 07:07:25;;;;;;;82.55;31.65;;;-2.50;99.90;;;;;;6184300;23;20029;-76
2024/01/31 07:09:55;;;;;;;93.68;34.10;;;-2.50;99.90;;;;;;6185463;23;20020;-75
2024/01/31 07:12:23;;;;;;;81.63;31.73;;;-2.40;99.90;;;;;;6184402;23;20075;-76
2024/01/31 07:14:52;;;;;;;84.25;30.52;;;-2.40;99.90;;;;;;6185279;23;20033;-76
2024/01/31 07:17:20;;;;;;;81.55;31.33;;;-2.30;99.90;;;;;;6212396;23;20020;-75
2024/01/31 07:19:48;;;;;;;78.65;31.27;;;-2.30;99.90;;;;;;6183984;23;20048;-75
2024/01/31 07:22:17;;;;;;;76.35;30.38;;;-2.20;99.90;;;;;;6212450;23;20445;-75
2024/01/31 07:24:45;;;;;;;83.53;31.75;;;-2.10;99.90;;;;;;6183777;23;20028;-76
2024/01/31 07:27:15;;;;;;;80.50;30.25;;;-2.10;99.90;;;;;;6184419;23;20055;-75
2024/01/31 07:29:46;;;;;;;78.55;30.38;;;-2.00;99.90;;;;;;6185432;23;20028;-75
2024/01/31 07:32:14;;;;;;;113.80;36.33;;;-1.90;99.90;;;;;;6210509;23;20091;-75
2024/01/31 07:34:43;;;;;;;120.32;39.15;;;-1.90;99.90;;;;;;6185624;23;20446;-75
2024/01/31 07:37:11;;;;;;;106.93;35.65;;;-1.80;99.90;;;;;;6212362;23;20020;-75
2024/01/31 07:39:39;;;;;;;107.65;39.08;;;-1.80;99.90;;;;;;6184753;23;20047;-75
2024/01/31 07:42:08;;;;;;;117.88;39.25;;;-1.70;99.90;;;;;;6185801;23;20024;-76
2024/01/31 07:44:38;;;;;;;104.25;37.35;;;-1.60;99.90;;;;;;6211550;23;20025;-76
2024/01/31 07:47:06;;;;;;;95.07;33.60;;;-1.60;99.90;;;;;;6210099;23;20020;-75
2024/01/31 07:49:35;;;;;;;83.38;34.28;;;-1.50;99.90;;;;;;6209907;23;20028;-75
2024/01/31 07:52:04;;;;;;;98.97;33.80;;;-1.40;99.90;;;;;;6212466;23;20036;-75
2024/01/31 07:54:32;;;;;;;98.05;32.88;;;-1.30;99.90;;;;;;6183768;23;20460;-76
2024/01/31 07:57:00;;;;;;;89.43;31.40;;;-1.30;99.90;;;;;;6185611;23;20020;-76
2024/01/31 07:59:29;;;;;;;83.03;31.95;;;-1.20;99.90;;;;;;6212208;23;20043;-75
2024/01/31 08:01:59;;;;;;;76.07;29.45;;;-1.10;99.90;;;;;;6185738;23;20070;-76
2024/01/31 08:04:27;;;;;;;80.95;30.08;;;-1.10;99.90;;;;;;6186103;23;20052;-76
2024/01/31 08:06:56;;;;;;;90.90;32.97;;;-1.00;99.90;;;;;;6185756;23;20027;-77
2024/01/31 08:09:24;;;;;;;80.97;31.95;;;-0.90;99.90;;;;;;6212169;23;20507;-76
2024/01/31 08:11:52;;;;;;;84.43;31.50;;;-0.80;99.90;;;;;;6212184;23;20374;-76
2024/01/31 08:14:21;;;;;;;79.78;30.63;;;-0.80;99.90;;;;;;6186084;23;20119;-78
2024/01/31 08:16:51;;;;;;;81.57;30.02;;;-0.70;99.90;;;;;;6187855;23;20025;-78
2024/01/31 08:19:21;;;;;;;87.97;31.48;;;-0.60;99.90;;;;;;6190591;23;20027;-78
2024/01/31 08:21:49;;;;;;;90.43;34.70;;;-0.50;99.90;;;;;;6190918;23;20024;-78
2024/01/31 08:24:18;;;;;;;91.03;32.53;;;-0.50;99.90;;;;;;6195137;23;20040;-78
2024/01/31 08:26:47;;;;;;;101.50;36.55;;;-0.50;99.90;;;;;;6221688;23;20020;-78
2024/01/31 08:29:15;;;;;;;101.40;36.97;;;-0.40;99.90;;;;;;6195258;23;20442;-78
2024/01/31 08:31:54;;;;;;;98.65;34.55;;;-0.30;99.90;;;;;;6219879;23;20017;-78
2024/01/31 08:34:25;;;;;;;99.95;35.58;;;-0.20;99.90;;;;;;6196202;23;20025;-78
2024/01/31 08:37:02;;;;;;;80.07;33.22;;;0.00;99.90;;;;;;6201442;23;20080;-79
2024/01/31 08:39:31;;;;;;;91.95;33.10;;;0.00;99.90;;;;;;6202160;23;20519;-77
2024/01/31 08:42:01;;;;;;;86.45;32.40;;;0.00;99.90;;;;;;6189522;23;20024;-76
2024/01/31 08:44:29;;;;;;;78.55;30.77;;;0.10;99.90;;;;;;6188950;23;20025;-77
2024/01/31 08:46:59;;;;;;;82.70;31.92;;;0.20;99.90;;;;;;6188655;23;20353;-76
2024/01/31 08:49:48;;;;;;;82.70;33.25;;;0.20;99.90;;;;;;6190233;23;20445;-77
2024/01/31 08:52:17;;;;;;;78.90;29.00;;;0.30;99.90;;;;;;6190575;23;20021;-76
2024/01/31 08:54:47;;;;;;;76.50;30.63;;;0.40;99.90;;;;;;6191976;23;20024;-77
2024/01/31 08:57:18;;;;;;;90.07;33.28;;;0.40;99.90;;;;;;6219011;23;20043;-76
2024/01/31 08:59:49;;;;;;;82.38;31.05;;;0.60;99.90;;;;;;6192987;23;20096;-76
2024/01/31 09:02:20;;;;;;;75.72;30.70;;;0.50;99.90;;;;;;6194143;23;20472;-77
2024/01/31 09:04:50;;;;;;;77.70;28.70;;;0.70;99.90;;;;;;6194179;23;20095;-76
2024/01/31 09:07:25;;;;;;;70.05;27.52;;;0.70;99.90;;;;;;6193825;23;20393;-76
2024/01/31 09:09:54;;;;;;;67.70;26.08;;;0.90;99.90;;;;;;6192876;23;20055;-77
2024/01/31 09:12:25;;;;;;;76.25;26.83;;;1.10;99.90;;;;;;6194003;23;20365;-76
2024/01/31 09:14:54;;;;;;;54.28;22.48;;;1.00;99.90;;;;;;6193273;23;20035;-76
2024/01/31 09:17:25;;;;;;;60.13;25.48;;;1.00;99.90;;;;;;6193041;23;20024;-76
2024/01/31 09:19:55;;;;;;;57.67;22.70;;;1.20;99.90;;;;;;6191572;23;20017;-76
2024/01/31 09:22:24;;;;;;;57.00;22.48;;;1.20;99.90;;;;;;6191888;23;20017;-75
2024/01/31 09:24:53;;;;;;;51.38;20.00;;;1.20;99.90;;;;;;6217205;23;20492;-76
2024/01/31 09:27:21;;;;;;;46.38;20.08;;;1.30;99.90;;;;;;6191690;23;20389;-76
2024/01/31 09:29:50;;;;;;;41.25;17.17;;;1.40;99.90;;;;;;6191157;23;20079;-77
2024/01/31 09:32:18;;;;;;;36.63;15.88;;;1.40;99.90;;;;;;6190506;23;20358;-77
2024/01/31 09:34:47;;;;;;;39.58;16.08;;;1.50;99.90;;;;;;6189897;23;20021;-76
2024/01/31 09:37:17;;;;;;;36.80;15.05;;;1.60;99.90;;;;;;6188578;23;20341;-75
2024/01/31 09:39:45;;;;;;;40.88;15.88;;;1.60;99.90;;;;;;6188340;23;20358;-76
2024/01/31 09:42:13;;;;;;;45.72;18.33;;;1.70;99.90;;;;;;6188568;23;20017;-76
2024/01/31 09:44:42;;;;;;;45.70;17.25;;;1.80;99.90;;;;;;6189182;23;20025;-77
2024/01/31 09:47:12;;;;;;;43.03;17.95;;;1.90;99.90;;;;;;6214286;23;20024;-75
2024/01/31 09:49:40;;;;;;;39.40;17.52;;;2.00;99.90;;;;;;6191821;23;20059;-77
2024/01/31 09:52:12;;;;;;;31.98;14.48;;;2.10;99.90;;;;;;6193959;23;20016;-77
2024/01/31 09:54:45;;;;;;;28.88;13.05;;;2.20;99.90;;;;;;6194051;23;20111;-76
2024/01/31 09:57:14;;;;;;;31.90;12.60;;;2.20;99.90;;;;;;6191856;23;20059;-76
2024/01/31 09:59:42;;;;;;;31.27;13.95;;;2.30;99.90;;;;;;6190313;23;20087;-76
2024/01/31 10:02:11;;;;;;;25.52;11.25;;;2.40;99.90;;;;;;6191011;23;20103;-76
2024/01/31 10:04:39;;;;;;;27.05;11.55;;;2.40;99.90;;;;;;6218561;23;20017;-76
2024/01/31 10:07:08;;;;;;;32.75;11.38;;;2.40;99.90;;;;;;6191869;23;20028;-76
2024/01/31 10:09:37;;;;;;;410.27;115.32;;;2.40;99.90;;;;;;6190345;23;20432;-76
2024/01/31 10:12:07;;;;;;;188.27;54.33;;;2.50;99.90;;;;;;6192112;23;20028;-76
2024/01/31 10:14:36;;;;;;;36.63;13.07;;;2.50;99.90;;;;;;6191523;23;20024;-76
2024/01/31 10:17:04;;;;;;;28.92;10.80;;;2.50;99.90;;;;;;6188988;23;20360;-76
2024/01/31 10:19:33;;;;;;;27.20;11.15;;;2.50;99.90;;;;;;6216096;23;20020;-76
2024/01/31 10:22:01;;;;;;;29.00;11.40;;;2.50;99.90;;;;;;6190677;23;20039;-77
2024/01/31 10:24:30;;;;;;;27.55;11.77;;;2.60;99.90;;;;;;6191164;23;20091;-77
2024/01/31 10:26:58;;;;;;;30.60;11.90;;;2.70;99.90;;;;;;6190351;23;20048;-76
2024/01/31 10:29:28;;;;;;;30.02;12.30;;;2.70;99.90;;;;;;6218668;23;20024;-76
2024/01/31 10:31:59;;;;;;;33.75;14.18;;;2.60;99.90;;;;;;6190571;23;20027;-76
2024/01/31 10:34:28;;;;;;;32.03;13.32;;;2.70;99.90;;;;;;6217612;23;20401;-76
2024/01/31 10:37:11;;;;;;;32.97;13.98;;;2.60;99.90;;;;;;6193202;23;20453;-76
2024/01/31 10:40:01;;;;;;;32.13;13.68;;;2.60;99.90;;;;;;6217549;23;20027;-76
2024/01/31 10:42:30;;;;;;;33.45;14.75;;;2.60;99.90;;;;;;6190128;23;20047;-75
2024/01/31 10:45:00;;;;;;;32.58;13.68;;;2.60;99.90;;;;;;6189554;23;20103;-76
2024/01/31 10:47:29;;;;;;;30.83;13.75;;;2.70;99.90;;;;;;6215785;23;20032;-76
2024/01/31 10:49:58;;;;;;;34.20;14.55;;;2.80;99.90;;;;;;6188603;23;20020;-76
2024/01/31 10:52:32;;;;;;;40.65;15.90;;;2.80;99.90;;;;;;6214996;23;20371;-76
2024/01/31 10:55:03;;;;;;;36.03;15.65;;;2.80;99.90;;;;;;6187504;23;20028;-76
2024/01/31 10:57:37;;;;;;;36.33;15.13;;;2.90;99.90;;;;;;6214850;23;20087;-76
2024/01/31 11:00:11;;;;;;;37.25;16.45;;;3.00;99.90;;;;;;6187690;23;20466;-75
2024/01/31 11:02:40;;;;;;;32.53;14.68;;;3.00;99.90;;;;;;6184726;23;20017;-75
2024/01/31 11:05:09;;;;;;;30.35;13.88;;;3.10;99.90;;;;;;6213251;23;20020;-74
2024/01/31 11:07:45;;;;;;;27.60;12.77;;;3.10;99.90;;;;;;6186179;23;20103;-75
2024/01/31 11:10:17;;;;;;;32.97;14.00;;;3.30;99.90;;;;;;6213945;23;20023;-75
2024/01/31 11:12:57;;;;;;;24.13;9.93;;;3.40;99.90;;;;;;6187368;23;20056;-74
2024/01/31 11:15:31;;;;;;;23.15;8.75;;;3.50;99.90;;;;;;6184149;23;20090;-75
2024/01/31 11:18:09;;;;;;;18.42;8.05;;;3.60;99.90;;;;;;6186373;23;20443;-76
2024/01/31 11:20:40;;;;;;;22.27;9.80;;;3.50;99.90;;;;;;6187480;23;20028;-76
2024/01/31 11:23:14;;;;;;;22.17;9.25;;;3.60;99.90;;;;;;6186655;23;20107;-76
2024/01/31 11:25:43;;;;;;;23.35;10.15;;;3.70;99.90;;;;;;6187393;23;20027;-76
2024/01/31 11:28:12;;;;;;;17.83;9.05;;;3.70;99.90;;;;;;6189875;23;20079;-77
2024/01/31 11:30:42;;;;;;;23.20;9.63;;;3.80;99.90;;;;;;6213983;23;20028;-77
2024/01/31 11:33:11;;;;;;;21.77;9.48;;;3.80;99.90;;;;;;6189007;23;20023;-76
2024/01/31 11:35:39;;;;;;;23.20;8.70;;;3.70;99.90;;;;;;6187645;23;20393;-76
2024/01/31 11:38:08;;;;;;;21.20;8.90;;;3.70;99.90;;;;;;6189325;23;20454;-76
2024/01/31 11:40:37;;;;;;;23.17;10.75;;;3.70;99.90;;;;;;6188481;23;20472;-76
2024/01/31 11:43:06;;;;;;;22.73;10.10;;;3.80;99.90;;;;;;6185771;23;20032;-76
2024/01/31 11:45:35;;;;;;;19.10;8.65;;;3.70;99.90;;;;;;6213313;23;20021;-76
2024/01/31 11:48:05;;;;;;;20.75;9.68;;;3.70;99.90;;;;;;6213629;23;20413;-76
2024/01/31 11:50:34;;;;;;;25.25;11.18;;;3.70;99.90;;;;;;6188792;23;20025;-76
2024/01/31 11:53:03;;;;;;;25.90;10.40;;;3.80;99.90;;;;;;6187655;23;20457;-76
2024/01/31 11:55:34;;;;;;;24.85;11.18;;;3.80;99.90;;;;;;6214647;23;20023;-76
2024/01/31 11:58:02;;;;;;;21.52;10.20;;;3.80;99.90;;;;;;6185316;23;20032;-76
2024/01/31 12:00:31;;;;;;;18.98;9.13;;;3.80;99.90;;;;;;6183387;23;20028;-76
2024/01/31 12:03:00;;;;;;;25.13;10.20;;;3.80;99.90;;;;;;6186162;23;20020;-76
2024/01/31 12:05:30;;;;;;;20.50;9.77;;;3.80;99.90;;;;;;6212983;23;20398;-76
2024/01/31 12:07:59;;;;;;;20.23;9.02;;;3.90;99.90;;;;;;6187305;23;20020;-76
2024/01/31 12:10:29;;;;;;;20.23;9.80;;;3.90;99.90;;;;;;6186888;23;20052;-78
2024/01/31 12:13:00;;;;;;;20.45;8.60;;;3.90;99.90;;;;;;6184992;23;20079;-78
2024/01/31 12:15:30;;;;;;;27.60;11.98;;;3.90;99.90;;;;;;6187236;23;20438;-78
2024/01/31 12:18:00;;;;;;;21.35;8.55;;;3.90;99.90;;;;;;6189143;23;20021;-78
2024/01/31 12:20:31;;;;;;;19.23;9.20;;;4.00;99.90;;;;;;6188796;23;20049;-78
2024/01/31 12:22:59;;;;;;;29.42;9.60;;;4.10;99.90;;;;;;6188690;23;20024;-78
2024/01/31 12:25:28;;;;;;;23.65;10.23;;;4.10;99.90;;;;;;6187074;23;20056;-78
2024/01/31 12:27:56;;;;;;;20.50;10.05;;;4.10;99.90;;;;;;6215307;23;20099;-78
2024/01/31 12:30:25;;;;;;;24.52;9.50;;;4.10;99.90;;;;;;6189705;23;20512;-78
2024/01/31 12:32:53;;;;;;;24.27;10.32;;;4.10;99.90;;;;;;6217042;23;20013;-78
2024/01/31 12:35:22;;;;;;;22.27;10.13;;;4.00;99.90;;;;;;6190536;23;20025;-78
2024/01/31 12:37:52;;;;;;;22.05;10.90;;;4.00;99.90;;;;;;6189741;23;20050;-78
2024/01/31 12:40:21;;;;;;;27.27;11.30;;;3.90;99.90;;;;;;6189259;23;20087;-78
2024/01/31 12:42:50;;;;;;;22.55;10.90;;;4.00;99.90;;;;;;6215946;23;20123;-78